Hauptseite
METAR-TAF:

METAR-TAF

Flughäfen :

London-Southend, England

London Southend Airport

Breite: 51-34N, Länge: 000-42E, Höhe: 15 m

Beobachtung

Neuester Wetterbericht von vor 34 Minuten, um 12:20 UTC
Wind 6 kt aus Ost/Nordost
Temperatur 4°C
Luftfeuchtigkeit 87%
Luftdruck 998 hPa
Sichtweite 10 km oder mehr
Leicht bewölkt in der Höhe von 700 ft
Durchbrochene Bewölkung in der Höhe von 2100 ft

METAR: EGMC 201220Z 07006KT 9999 FEW007 BKN021 04/02 Q0998

Zeit: 12:54 (12:54 UTC)

Prognose

Neuester Wetterbericht von vor 24 Minuten, um 12:30 UTC
Gültige Prognose vom 20 um 12 UTC bis 20 um 21 UTC
Wind 5 kt aus Ost/Südost
Sichtweite 10 km oder mehr
Aufgelockert bewölkt in der Höhe von 1500 ft
Leichtregen
Zeitweise
vom 20 um 12 UTC bis 20 um 21 UTC
Sichtweite: 4000 m
Durchbrochene Bewölkung in der Höhe von 800 ft
Regen, Sprühregen

TAF: EGMC 201230Z 2012/2021 11005KT 9999 -RA SCT015 TEMPO 2012/2021 4000 RADZ BKN008

Wetterbeobachtungen und Prognosen von mehr als 4000 Flughäfen (METAR und TAF Bericht).

Die verfügbaren Stationen werden durch gelbe und rote Markierungen auf der Karte dargestellt.

Führen Sie die Maus auf sie, um den Namen der Station zu sehen.

Darauf klicken, um die Beobachtung von Wetterbeobachtungen und Prognosen zu sehen.

Um die Karte zu ändern : klicken Sie auf den grünen Tasten mit einem schwarzen Kreuz Zum Vergrößern, auf den grünen Button mit einem Gedankenstrich zu verkleinern, oder auf die grünen Pfeile für benachbarte Karten.


METAR-TAF: